<?xml version="1.0" encoding="UTF-8" standalone="no" ?>
<gpx xmlns="http://www.topografix.com/GPX/1/1" xmlns:xsi="http://www.w3.org/2001/XMLSchema-instance" xsi:schemaLocation="http://www.topografix.com/GPX/1/1 http://www.topografix.com/GPX/1/1/gpx.xsd" version="1.1" creator="VisuGPX - https://www.visugpx.com">
  <metadata>
    <name>Rando Grand Ballon</name>
    <desc><![CDATA[Randonnées du Grand Ballon, Alsace de 3 jours ]]></desc>
  </metadata>
  <trk>
    <name><![CDATA[Export(4) on GPSies.com]]></name>
    <trkseg>
      <trkpt lat="47.90745" lon="7.21013">
        <ele>293</ele>
        <time>2010-01-01T00:00:00Z</time>
      </trkpt>
      <trkpt lat="47.90869" lon="7.212">
        <ele>294</ele>
        <time>2010-01-01T00:01:10Z</time>
      </trkpt>
      <trkpt lat="47.90748" lon="7.21326">
        <ele>294</ele>
        <time>2010-01-01T00:02:09Z</time>
      </trkpt>
      <trkpt lat="47.90624" lon="7.21511">
        <ele>291</ele>
        <time>2010-01-01T00:03:19Z</time>
      </trkpt>
      <trkpt lat="47.90731" lon="7.21738">
        <ele>288</ele>
        <time>2010-01-01T00:04:34Z</time>
      </trkpt>
      <trkpt lat="47.90752" lon="7.2173">
        <ele>289</ele>
        <time>2010-01-01T00:04:42Z</time>
      </trkpt>
      <trkpt lat="47.90821" lon="7.21742">
        <ele>299</ele>
        <time>2010-01-01T00:05:10Z</time>
      </trkpt>
      <trkpt lat="47.90793" lon="7.21878">
        <ele>304</ele>
        <time>2010-01-01T00:05:48Z</time>
      </trkpt>
      <trkpt lat="47.90741" lon="7.21987">
        <ele>309</ele>
        <time>2010-01-01T00:06:24Z</time>
      </trkpt>
      <trkpt lat="47.90877" lon="7.21839">
        <ele>326</ele>
        <time>2010-01-01T00:07:32Z</time>
      </trkpt>
      <trkpt lat="47.90879" lon="7.21948">
        <ele>341</ele>
        <time>2010-01-01T00:08:01Z</time>
      </trkpt>
      <trkpt lat="47.90823" lon="7.22017">
        <ele>340</ele>
        <time>2010-01-01T00:08:30Z</time>
      </trkpt>
      <trkpt lat="47.90757" lon="7.22178">
        <ele>374</ele>
        <time>2010-01-01T00:09:21Z</time>
      </trkpt>
      <trkpt lat="47.90663" lon="7.22247">
        <ele>377</ele>
        <time>2010-01-01T00:10:03Z</time>
      </trkpt>
      <trkpt lat="47.90737" lon="7.22206">
        <ele>378</ele>
        <time>2010-01-01T00:10:34Z</time>
      </trkpt>
      <trkpt lat="47.90909" lon="7.22159">
        <ele>404</ele>
        <time>2010-01-01T00:11:44Z</time>
      </trkpt>
      <trkpt lat="47.91047" lon="7.22152">
        <ele>430</ele>
        <time>2010-01-01T00:12:40Z</time>
      </trkpt>
      <trkpt lat="47.9103" lon="7.22">
        <ele>421</ele>
        <time>2010-01-01T00:13:21Z</time>
      </trkpt>
      <trkpt lat="47.91083" lon="7.21809">
        <ele>429</ele>
        <time>2010-01-01T00:14:16Z</time>
      </trkpt>
      <trkpt lat="47.91196" lon="7.21606">
        <ele>427</ele>
        <time>2010-01-01T00:15:27Z</time>
      </trkpt>
      <trkpt lat="47.91295" lon="7.21555">
        <ele>441</ele>
        <time>2010-01-01T00:16:09Z</time>
      </trkpt>
      <trkpt lat="47.91405" lon="7.2142">
        <ele>431</ele>
        <time>2010-01-01T00:17:06Z</time>
      </trkpt>
      <trkpt lat="47.91494" lon="7.21321">
        <ele>425</ele>
        <time>2010-01-01T00:17:51Z</time>
      </trkpt>
      <trkpt lat="47.91604" lon="7.2129">
        <ele>434</ele>
        <time>2010-01-01T00:18:35Z</time>
      </trkpt>
      <trkpt lat="47.91734" lon="7.21373">
        <ele>449</ele>
        <time>2010-01-01T00:19:32Z</time>
      </trkpt>
      <trkpt lat="47.91812" lon="7.21375">
        <ele>443</ele>
        <time>2010-01-01T00:20:03Z</time>
      </trkpt>
      <trkpt lat="47.9191" lon="7.21349">
        <ele>445</ele>
        <time>2010-01-01T00:20:43Z</time>
      </trkpt>
      <trkpt lat="47.92048" lon="7.20993">
        <ele>458</ele>
        <time>2010-01-01T00:22:33Z</time>
      </trkpt>
      <trkpt lat="47.92195" lon="7.20971">
        <ele>475</ele>
        <time>2010-01-01T00:23:32Z</time>
      </trkpt>
      <trkpt lat="47.92347" lon="7.20881">
        <ele>482</ele>
        <time>2010-01-01T00:24:38Z</time>
      </trkpt>
      <trkpt lat="47.92502" lon="7.20869">
        <ele>508</ele>
        <time>2010-01-01T00:25:40Z</time>
      </trkpt>
      <trkpt lat="47.92474" lon="7.20474">
        <ele>502</ele>
        <time>2010-01-01T00:27:27Z</time>
      </trkpt>
      <trkpt lat="47.92629" lon="7.20266">
        <ele>516</ele>
        <time>2010-01-01T00:28:50Z</time>
      </trkpt>
      <trkpt lat="47.92704" lon="7.20083">
        <ele>518</ele>
        <time>2010-01-01T00:29:48Z</time>
      </trkpt>
      <trkpt lat="47.92805" lon="7.19971">
        <ele>517</ele>
        <time>2010-01-01T00:30:38Z</time>
      </trkpt>
      <trkpt lat="47.92902" lon="7.19916">
        <ele>501</ele>
        <time>2010-01-01T00:31:20Z</time>
      </trkpt>
      <trkpt lat="47.92901" lon="7.19877">
        <ele>489</ele>
        <time>2010-01-01T00:31:30Z</time>
      </trkpt>
      <trkpt lat="47.92834" lon="7.19674">
        <ele>433</ele>
        <time>2010-01-01T00:32:31Z</time>
      </trkpt>
      <trkpt lat="47.92902" lon="7.19654">
        <ele>426</ele>
        <time>2010-01-01T00:32:58Z</time>
      </trkpt>
      <trkpt lat="47.92916" lon="7.19607">
        <ele>415</ele>
        <time>2010-01-01T00:33:12Z</time>
      </trkpt>
      <trkpt lat="47.9298" lon="7.19543">
        <ele>416</ele>
        <time>2010-01-01T00:33:43Z</time>
      </trkpt>
      <trkpt lat="47.93016" lon="7.19425">
        <ele>408</ele>
        <time>2010-01-01T00:34:18Z</time>
      </trkpt>
      <trkpt lat="47.93056" lon="7.19326">
        <ele>401</ele>
        <time>2010-01-01T00:34:49Z</time>
      </trkpt>
      <trkpt lat="47.93187" lon="7.19178">
        <ele>398</ele>
        <time>2010-01-01T00:35:55Z</time>
      </trkpt>
      <trkpt lat="47.93258" lon="7.19037">
        <ele>375</ele>
        <time>2010-01-01T00:36:42Z</time>
      </trkpt>
      <trkpt lat="47.9333" lon="7.19001">
        <ele>383</ele>
        <time>2010-01-01T00:37:12Z</time>
      </trkpt>
      <trkpt lat="47.93337" lon="7.18907">
        <ele>374</ele>
        <time>2010-01-01T00:37:38Z</time>
      </trkpt>
      <trkpt lat="47.93342" lon="7.18791">
        <ele>361</ele>
        <time>2010-01-01T00:38:09Z</time>
      </trkpt>
      <trkpt lat="47.935" lon="7.18676">
        <ele>377</ele>
        <time>2010-01-01T00:39:19Z</time>
      </trkpt>
      <trkpt lat="47.93652" lon="7.18689">
        <ele>383</ele>
        <time>2010-01-01T00:40:20Z</time>
      </trkpt>
      <trkpt lat="47.93935" lon="7.18714">
        <ele>384</ele>
        <time>2010-01-01T00:42:14Z</time>
      </trkpt>
      <trkpt lat="47.94147" lon="7.18757">
        <ele>399</ele>
        <time>2010-01-01T00:43:39Z</time>
      </trkpt>
      <trkpt lat="47.94349" lon="7.18809">
        <ele>421</ele>
        <time>2010-01-01T00:45:01Z</time>
      </trkpt>
      <trkpt lat="47.94584" lon="7.18912">
        <ele>423</ele>
        <time>2010-01-01T00:46:39Z</time>
      </trkpt>
      <trkpt lat="47.94866" lon="7.1898">
        <ele>445</ele>
        <time>2010-01-01T00:48:34Z</time>
      </trkpt>
      <trkpt lat="47.95225" lon="7.19204">
        <ele>486</ele>
        <time>2010-01-01T00:51:10Z</time>
      </trkpt>
      <trkpt lat="47.95396" lon="7.1929">
        <ele>492</ele>
        <time>2010-01-01T00:52:22Z</time>
      </trkpt>
      <trkpt lat="47.95725" lon="7.19303">
        <ele>461</ele>
        <time>2010-01-01T00:54:33Z</time>
      </trkpt>
      <trkpt lat="47.96063" lon="7.19301">
        <ele>424</ele>
        <time>2010-01-01T00:56:49Z</time>
      </trkpt>
      <trkpt lat="47.96079" lon="7.19082">
        <ele>417</ele>
        <time>2010-01-01T00:57:48Z</time>
      </trkpt>
      <trkpt lat="47.96205" lon="7.19597">
        <ele>361</ele>
        <time>2010-01-01T01:00:15Z</time>
      </trkpt>
      <trkpt lat="47.96468" lon="7.19896">
        <ele>353</ele>
        <time>2010-01-01T01:02:27Z</time>
      </trkpt>
      <trkpt lat="47.96751" lon="7.20097">
        <ele>331</ele>
        <time>2010-01-01T01:04:33Z</time>
      </trkpt>
      <trkpt lat="47.96856" lon="7.20168">
        <ele>324</ele>
        <time>2010-01-01T01:05:19Z</time>
      </trkpt>
      <trkpt lat="47.97031" lon="7.20123">
        <ele>335</ele>
        <time>2010-01-01T01:06:30Z</time>
      </trkpt>
      <trkpt lat="47.9721" lon="7.20224">
        <ele>334</ele>
        <time>2010-01-01T01:07:46Z</time>
      </trkpt>
      <trkpt lat="47.97281" lon="7.19947">
        <ele>338</ele>
        <time>2010-01-01T01:09:06Z</time>
      </trkpt>
      <trkpt lat="47.97589" lon="7.19595">
        <ele>361</ele>
        <time>2010-01-01T01:11:41Z</time>
      </trkpt>
      <trkpt lat="47.97797" lon="7.18876">
        <ele>417</ele>
        <time>2010-01-01T01:15:11Z</time>
      </trkpt>
      <trkpt lat="47.97847" lon="7.18602">
        <ele>449</ele>
        <time>2010-01-01T01:16:27Z</time>
      </trkpt>
      <trkpt lat="47.97754" lon="7.18619">
        <ele>444</ele>
        <time>2010-01-01T01:17:05Z</time>
      </trkpt>
      <trkpt lat="47.97742" lon="7.1849">
        <ele>471</ele>
        <time>2010-01-01T01:17:40Z</time>
      </trkpt>
      <trkpt lat="47.97553" lon="7.18275">
        <ele>519</ele>
        <time>2010-01-01T01:19:15Z</time>
      </trkpt>
      <trkpt lat="47.97406" lon="7.17924">
        <ele>581</ele>
        <time>2010-01-01T01:21:06Z</time>
      </trkpt>
      <trkpt lat="47.97353" lon="7.17467">
        <ele>642</ele>
        <time>2010-01-01T01:23:10Z</time>
      </trkpt>
      <trkpt lat="47.97428" lon="7.16984">
        <ele>708</ele>
        <time>2010-01-01T01:25:23Z</time>
      </trkpt>
      <trkpt lat="47.97475" lon="7.16808">
        <ele>739</ele>
        <time>2010-01-01T01:26:14Z</time>
      </trkpt>
      <trkpt lat="47.97517" lon="7.16726">
        <ele>764</ele>
        <time>2010-01-01T01:26:41Z</time>
      </trkpt>
      <trkpt lat="47.97559" lon="7.16751">
        <ele>783</ele>
        <time>2010-01-01T01:26:59Z</time>
      </trkpt>
      <trkpt lat="47.97608" lon="7.16592">
        <ele>806</ele>
        <time>2010-01-01T01:27:46Z</time>
      </trkpt>
      <trkpt lat="47.97669" lon="7.16535">
        <ele>829</ele>
        <time>2010-01-01T01:28:15Z</time>
      </trkpt>
      <trkpt lat="47.97699" lon="7.16287">
        <ele>850</ele>
        <time>2010-01-01T01:29:23Z</time>
      </trkpt>
      <trkpt lat="47.9776" lon="7.15995">
        <ele>852</ele>
        <time>2010-01-01T01:30:44Z</time>
      </trkpt>
      <trkpt lat="47.97786" lon="7.15435">
        <ele>893</ele>
        <time>2010-01-01T01:33:15Z</time>
      </trkpt>
      <trkpt lat="47.97649" lon="7.14804">
        <ele>874</ele>
        <time>2010-01-01T01:36:13Z</time>
      </trkpt>
      <trkpt lat="47.9774" lon="7.14699">
        <ele>878</ele>
        <time>2010-01-01T01:36:59Z</time>
      </trkpt>
      <trkpt lat="47.97678" lon="7.14696">
        <ele>889</ele>
        <time>2010-01-01T01:37:24Z</time>
      </trkpt>
      <trkpt lat="47.97741" lon="7.14615">
        <ele>905</ele>
        <time>2010-01-01T01:37:57Z</time>
      </trkpt>
      <trkpt lat="47.97915" lon="7.14377">
        <ele>923</ele>
        <time>2010-01-01T01:39:31Z</time>
      </trkpt>
      <trkpt lat="47.97773" lon="7.14325">
        <ele>956</ele>
        <time>2010-01-01T01:40:30Z</time>
      </trkpt>
      <trkpt lat="47.97852" lon="7.13973">
        <ele>991</ele>
        <time>2010-01-01T01:42:09Z</time>
      </trkpt>
      <trkpt lat="47.97958" lon="7.13645">
        <ele>1034</ele>
        <time>2010-01-01T01:43:47Z</time>
      </trkpt>
      <trkpt lat="47.98155" lon="7.13441">
        <ele>1057</ele>
        <time>2010-01-01T01:45:23Z</time>
      </trkpt>
      <trkpt lat="47.98343" lon="7.13269">
        <ele>1104</ele>
        <time>2010-01-01T01:46:51Z</time>
      </trkpt>
      <trkpt lat="47.98456" lon="7.13323">
        <ele>1110</ele>
        <time>2010-01-01T01:47:39Z</time>
      </trkpt>
      <trkpt lat="47.98492" lon="7.13278">
        <ele>1122</ele>
        <time>2010-01-01T01:47:57Z</time>
      </trkpt>
      <trkpt lat="47.98558" lon="7.13027">
        <ele>1157</ele>
        <time>2010-01-01T01:49:10Z</time>
      </trkpt>
      <trkpt lat="47.98448" lon="7.13012">
        <ele>1177</ele>
        <time>2010-01-01T01:49:54Z</time>
      </trkpt>
      <trkpt lat="47.98257" lon="7.129">
        <ele>1213</ele>
        <time>2010-01-01T01:51:16Z</time>
      </trkpt>
      <trkpt lat="47.98063" lon="7.12463">
        <ele>1249</ele>
        <time>2010-01-01T01:53:36Z</time>
      </trkpt>
      <trkpt lat="47.98008" lon="7.12197">
        <ele>1203</ele>
        <time>2010-01-01T01:54:51Z</time>
      </trkpt>
      <trkpt lat="47.9789" lon="7.11945">
        <ele>1200</ele>
        <time>2010-01-01T01:56:13Z</time>
      </trkpt>
      <trkpt lat="47.97885" lon="7.11673">
        <ele>1194</ele>
        <time>2010-01-01T01:57:26Z</time>
      </trkpt>
      <trkpt lat="47.97836" lon="7.11167">
        <ele>1185</ele>
        <time>2010-01-01T01:59:43Z</time>
      </trkpt>
      <trkpt lat="47.97629" lon="7.10671">
        <ele>1201</ele>
        <time>2010-01-01T02:02:20Z</time>
      </trkpt>
      <trkpt lat="47.97234" lon="7.1034">
        <ele>1166</ele>
        <time>2010-01-01T02:05:21Z</time>
      </trkpt>
      <trkpt lat="47.96919" lon="7.09753">
        <ele>1122</ele>
        <time>2010-01-01T02:08:43Z</time>
      </trkpt>
      <trkpt lat="47.96586" lon="7.09141">
        <ele>1198</ele>
        <time>2010-01-01T02:12:14Z</time>
      </trkpt>
      <trkpt lat="47.96317" lon="7.08669">
        <ele>1248</ele>
        <time>2010-01-01T02:15:00Z</time>
      </trkpt>
      <trkpt lat="47.95804" lon="7.08117">
        <ele>1272</ele>
        <time>2010-01-01T02:19:14Z</time>
      </trkpt>
      <trkpt lat="47.95274" lon="7.07514">
        <ele>1240</ele>
        <time>2010-01-01T02:23:40Z</time>
      </trkpt>
      <trkpt lat="47.95122" lon="7.0701">
        <ele>1264</ele>
        <time>2010-01-01T02:26:08Z</time>
      </trkpt>
      <trkpt lat="47.9506" lon="7.06796">
        <ele>1223</ele>
        <time>2010-01-01T02:27:11Z</time>
      </trkpt>
      <trkpt lat="47.95054" lon="7.06633">
        <ele>1198</ele>
        <time>2010-01-01T02:27:55Z</time>
      </trkpt>
      <trkpt lat="47.94997" lon="7.06397">
        <ele>1210</ele>
        <time>2010-01-01T02:29:02Z</time>
      </trkpt>
      <trkpt lat="47.94876" lon="7.06261">
        <ele>1217</ele>
        <time>2010-01-01T02:30:03Z</time>
      </trkpt>
      <trkpt lat="47.94614" lon="7.04783">
        <ele>1214</ele>
        <time>2010-01-01T02:36:53Z</time>
      </trkpt>
      <trkpt lat="47.94722" lon="7.03706">
        <ele>1184</ele>
        <time>2010-01-01T02:41:45Z</time>
      </trkpt>
      <trkpt lat="47.9476" lon="7.03579">
        <ele>1193</ele>
        <time>2010-01-01T02:42:22Z</time>
      </trkpt>
      <trkpt lat="47.94563" lon="7.03624">
        <ele>1180</ele>
        <time>2010-01-01T02:43:42Z</time>
      </trkpt>
      <trkpt lat="47.94485" lon="7.03109">
        <ele>1193</ele>
        <time>2010-01-01T02:46:03Z</time>
      </trkpt>
      <trkpt lat="47.94175" lon="7.02965">
        <ele>1164</ele>
        <time>2010-01-01T02:48:13Z</time>
      </trkpt>
      <trkpt lat="47.94133" lon="7.03294">
        <ele>1152</ele>
        <time>2010-01-01T02:49:43Z</time>
      </trkpt>
      <trkpt lat="47.9395" lon="7.03296">
        <ele>1163</ele>
        <time>2010-01-01T02:50:56Z</time>
      </trkpt>
      <trkpt lat="47.93742" lon="7.03135">
        <ele>1145</ele>
        <time>2010-01-01T02:52:30Z</time>
      </trkpt>
      <trkpt lat="47.93549" lon="7.0289">
        <ele>1133</ele>
        <time>2010-01-01T02:54:11Z</time>
      </trkpt>
      <trkpt lat="47.93246" lon="7.02455">
        <ele>1144</ele>
        <time>2010-01-01T02:57:00Z</time>
      </trkpt>
      <trkpt lat="47.93007" lon="7.0262">
        <ele>1145</ele>
        <time>2010-01-01T02:58:45Z</time>
      </trkpt>
      <trkpt lat="47.92823" lon="7.03077">
        <ele>1166</ele>
        <time>2010-01-01T03:01:08Z</time>
      </trkpt>
      <trkpt lat="47.92442" lon="7.033">
        <ele>1172</ele>
        <time>2010-01-01T03:03:52Z</time>
      </trkpt>
      <trkpt lat="47.92347" lon="7.0342">
        <ele>1175</ele>
        <time>2010-01-01T03:04:42Z</time>
      </trkpt>
      <trkpt lat="47.92271" lon="7.03414">
        <ele>1172</ele>
        <time>2010-01-01T03:05:12Z</time>
      </trkpt>
      <trkpt lat="47.92271" lon="7.03656">
        <ele>1169</ele>
        <time>2010-01-01T03:06:17Z</time>
      </trkpt>
      <trkpt lat="47.91955" lon="7.04017">
        <ele>1174</ele>
        <time>2010-01-01T03:08:57Z</time>
      </trkpt>
      <trkpt lat="47.91598" lon="7.0433">
        <ele>1176</ele>
        <time>2010-01-01T03:11:42Z</time>
      </trkpt>
      <trkpt lat="47.90993" lon="7.04985">
        <ele>1176</ele>
        <time>2010-01-01T03:16:41Z</time>
      </trkpt>
      <trkpt lat="47.91034" lon="7.05219">
        <ele>1177</ele>
        <time>2010-01-01T03:17:46Z</time>
      </trkpt>
      <trkpt lat="47.91053" lon="7.05723">
        <ele>1191</ele>
        <time>2010-01-01T03:20:02Z</time>
      </trkpt>
      <trkpt lat="47.91079" lon="7.06336">
        <ele>1187</ele>
        <time>2010-01-01T03:22:47Z</time>
      </trkpt>
      <trkpt lat="47.90959" lon="7.06579">
        <ele>1186</ele>
        <time>2010-01-01T03:24:08Z</time>
      </trkpt>
      <trkpt lat="47.9061" lon="7.06622">
        <ele>1177</ele>
        <time>2010-01-01T03:26:28Z</time>
      </trkpt>
      <trkpt lat="47.90375" lon="7.07019">
        <ele>1203</ele>
        <time>2010-01-01T03:28:50Z</time>
      </trkpt>
      <trkpt lat="47.90157" lon="7.07519">
        <ele>1231</ele>
        <time>2010-01-01T03:31:30Z</time>
      </trkpt>
      <trkpt lat="47.89814" lon="7.07388">
        <ele>1207</ele>
        <time>2010-01-01T03:33:52Z</time>
      </trkpt>
      <trkpt lat="47.8997" lon="7.08109">
        <ele>1191</ele>
        <time>2010-01-01T03:37:15Z</time>
      </trkpt>
      <trkpt lat="47.90141" lon="7.08551">
        <ele>1170</ele>
        <time>2010-01-01T03:39:32Z</time>
      </trkpt>
      <trkpt lat="47.9048" lon="7.09003">
        <ele>1224</ele>
        <time>2010-01-01T03:42:34Z</time>
      </trkpt>
      <trkpt lat="47.90437" lon="7.09221">
        <ele>1244</ele>
        <time>2010-01-01T03:43:35Z</time>
      </trkpt>
      <trkpt lat="47.90314" lon="7.0929">
        <ele>1275</ele>
        <time>2010-01-01T03:44:28Z</time>
      </trkpt>
      <trkpt lat="47.90083" lon="7.0956">
        <ele>1322</ele>
        <time>2010-01-01T03:46:25Z</time>
      </trkpt>
      <trkpt lat="47.89928" lon="7.09964">
        <ele>1374</ele>
        <time>2010-01-01T03:48:30Z</time>
      </trkpt>
      <trkpt lat="47.90314" lon="7.10243">
        <ele>1354</ele>
        <time>2010-01-01T03:51:22Z</time>
      </trkpt>
      <trkpt lat="47.90459" lon="7.10422">
        <ele>1331</ele>
        <time>2010-01-01T03:52:37Z</time>
      </trkpt>
      <trkpt lat="47.90801" lon="7.12102">
        <ele>1110</ele>
        <time>2010-01-01T04:00:28Z</time>
      </trkpt>
      <trkpt lat="47.90426" lon="7.10664">
        <ele>1291</ele>
        <time>2010-01-01T04:07:22Z</time>
      </trkpt>
      <trkpt lat="47.90347" lon="7.10673">
        <ele>1275</ele>
        <time>2010-01-01T04:07:54Z</time>
      </trkpt>
      <trkpt lat="47.90265" lon="7.10686">
        <ele>1259</ele>
        <time>2010-01-01T04:08:27Z</time>
      </trkpt>
      <trkpt lat="47.90209" lon="7.1071">
        <ele>1252</ele>
        <time>2010-01-01T04:08:50Z</time>
      </trkpt>
      <trkpt lat="47.9026" lon="7.10772">
        <ele>1245</ele>
        <time>2010-01-01T04:09:17Z</time>
      </trkpt>
      <trkpt lat="47.90449" lon="7.11576">
        <ele>1121</ele>
        <time>2010-01-01T04:13:05Z</time>
      </trkpt>
      <trkpt lat="47.90634" lon="7.12186">
        <ele>1055</ele>
        <time>2010-01-01T04:16:05Z</time>
      </trkpt>
      <trkpt lat="47.90791" lon="7.12926">
        <ele>968</ele>
        <time>2010-01-01T04:19:33Z</time>
      </trkpt>
      <trkpt lat="47.90692" lon="7.13284">
        <ele>965</ele>
        <time>2010-01-01T04:21:17Z</time>
      </trkpt>
      <trkpt lat="47.90725" lon="7.13988">
        <ele>917</ele>
        <time>2010-01-01T04:24:26Z</time>
      </trkpt>
      <trkpt lat="47.90902" lon="7.14211">
        <ele>890</ele>
        <time>2010-01-01T04:25:59Z</time>
      </trkpt>
      <trkpt lat="47.91075" lon="7.14477">
        <ele>877</ele>
        <time>2010-01-01T04:27:39Z</time>
      </trkpt>
      <trkpt lat="47.91096" lon="7.14838">
        <ele>849</ele>
        <time>2010-01-01T04:29:16Z</time>
      </trkpt>
      <trkpt lat="47.91128" lon="7.1498">
        <ele>834</ele>
        <time>2010-01-01T04:29:56Z</time>
      </trkpt>
      <trkpt lat="47.91157" lon="7.14881">
        <ele>826</ele>
        <time>2010-01-01T04:30:25Z</time>
      </trkpt>
      <trkpt lat="47.91208" lon="7.15031">
        <ele>803</ele>
        <time>2010-01-01T04:31:10Z</time>
      </trkpt>
      <trkpt lat="47.91249" lon="7.1498">
        <ele>787</ele>
        <time>2010-01-01T04:31:32Z</time>
      </trkpt>
      <trkpt lat="47.91392" lon="7.15147">
        <ele>748</ele>
        <time>2010-01-01T04:32:44Z</time>
      </trkpt>
      <trkpt lat="47.9152" lon="7.15304">
        <ele>721</ele>
        <time>2010-01-01T04:33:51Z</time>
      </trkpt>
      <trkpt lat="47.91382" lon="7.15316">
        <ele>721</ele>
        <time>2010-01-01T04:34:46Z</time>
      </trkpt>
      <trkpt lat="47.91053" lon="7.15836">
        <ele>658</ele>
        <time>2010-01-01T04:37:58Z</time>
      </trkpt>
      <trkpt lat="47.9103" lon="7.1607">
        <ele>652</ele>
        <time>2010-01-01T04:39:01Z</time>
      </trkpt>
      <trkpt lat="47.9089" lon="7.17042">
        <ele>599</ele>
        <time>2010-01-01T04:43:28Z</time>
      </trkpt>
      <trkpt lat="47.90893" lon="7.17606">
        <ele>571</ele>
        <time>2010-01-01T04:45:59Z</time>
      </trkpt>
      <trkpt lat="47.90802" lon="7.18185">
        <ele>593</ele>
        <time>2010-01-01T04:48:39Z</time>
      </trkpt>
      <trkpt lat="47.90305" lon="7.18527">
        <ele>563</ele>
        <time>2010-01-01T04:52:18Z</time>
      </trkpt>
      <trkpt lat="47.90675" lon="7.18632">
        <ele>550</ele>
        <time>2010-01-01T04:54:49Z</time>
      </trkpt>
      <trkpt lat="47.90291" lon="7.18822">
        <ele>506</ele>
        <time>2010-01-01T04:57:31Z</time>
      </trkpt>
      <trkpt lat="47.90012" lon="7.19238">
        <ele>468</ele>
        <time>2010-01-01T05:00:09Z</time>
      </trkpt>
      <trkpt lat="47.90239" lon="7.19259">
        <ele>439</ele>
        <time>2010-01-01T05:01:40Z</time>
      </trkpt>
      <trkpt lat="47.9034" lon="7.19431">
        <ele>404</ele>
        <time>2010-01-01T05:02:41Z</time>
      </trkpt>
      <trkpt lat="47.90455" lon="7.19641">
        <ele>377</ele>
        <time>2010-01-01T05:03:54Z</time>
      </trkpt>
      <trkpt lat="47.90593" lon="7.20002">
        <ele>345</ele>
        <time>2010-01-01T05:05:45Z</time>
      </trkpt>
      <trkpt lat="47.90716" lon="7.20989">
        <ele>293</ele>
        <time>2010-01-01T05:10:15Z</time>
      </trkpt>
    </trkseg>
  </trk>
</gpx>